Time;durP1;ratioP1;P1;durP2;ratioP2;P2;SDS_P1;SDS_P2;PMS_P1;PMS_P2;Temp;Humidity;BMP_temperature;BMP_pressure;BME280_temperature;BME280_humidity;BME280_pressure;Samples;Min_cycle;Max_cycle;Signal;HPM_P1;HPM_P2
2024/04/11 00:00:39;;;;;;;9.50;2.33;;;;;;;13.45;100.00;101112.00;5445755;26;20011;-61
2024/04/11 00:03:06;;;;;;;12.88;3.38;;;;;;;13.46;100.00;101115.59;5446828;26;20464;-61
2024/04/11 00:05:33;;;;;;;13.30;2.88;;;;;;;13.43;100.00;101117.09;5447322;26;20468;-61
2024/04/11 00:08:01;;;;;;;12.75;2.63;;;;;;;13.44;100.00;101124.28;5420285;26;20014;-61
2024/04/11 00:10:28;;;;;;;16.63;3.22;;;;;;;13.43;100.00;101139.34;5433307;26;20344;-61
2024/04/11 00:12:56;;;;;;;10.23;2.50;;;;;;;13.42;100.00;101127.41;5415416;26;20083;-61
2024/04/11 00:15:23;;;;;;;12.55;2.20;;;;;;;13.42;100.00;101112.72;5444678;26;20716;-61
2024/04/11 00:17:51;;;;;;;8.73;2.67;;;;;;;13.40;100.00;101123.38;5446761;26;20368;-61
2024/04/11 00:20:19;;;;;;;6.82;2.13;;;;;;;13.39;100.00;101132.91;5446864;26;20011;-61
2024/04/11 00:22:50;;;;;;;16.20;3.88;;;;;;;13.38;100.00;101129.31;5447260;26;20003;-61
2024/04/11 00:25:18;;;;;;;8.45;2.22;;;;;;;13.37;100.00;101135.19;5423311;26;20003;-61
2024/04/11 00:27:45;;;;;;;16.98;5.50;;;;;;;13.37;100.00;101135.19;5446776;26;20003;-61
2024/04/11 00:30:14;;;;;;;12.75;2.90;;;;;;;13.36;100.00;101147.50;5446050;26;20003;-60
2024/04/11 00:32:42;;;;;;;11.80;2.97;;;;;;;13.35;100.00;101154.22;5438162;26;20003;-61
2024/04/11 00:35:10;;;;;;;16.23;3.28;;;;;;;13.33;100.00;101153.78;5442156;26;20003;-61
2024/04/11 00:37:38;;;;;;;15.25;3.33;;;;;;;13.32;100.00;101166.03;5446541;26;20013;-61
2024/04/11 00:40:06;;;;;;;19.75;3.42;;;;;;;13.32;100.00;101179.94;5415121;26;20017;-61
2024/04/11 00:42:34;;;;;;;9.90;2.83;;;;;;;13.31;100.00;101187.50;5415725;26;20003;-61
2024/04/11 00:45:01;;;;;;;13.50;3.88;;;;;;;13.33;100.00;101195.50;5416890;26;19999;-61
2024/04/11 00:47:29;;;;;;;16.77;3.42;;;;;;;13.32;100.00;101188.28;5446160;26;20007;-61
2024/04/11 00:49:57;;;;;;;17.65;4.90;;;;;;;13.31;100.00;101178.34;5446214;26;20023;-61
2024/04/11 00:52:24;;;;;;;12.77;2.92;;;;;;;13.30;100.00;101193.41;5446178;26;20027;-61
2024/04/11 00:54:53;;;;;;;15.40;4.55;;;;;;;13.28;100.00;101190.19;5447008;26;20027;-60
2024/04/11 00:57:21;;;;;;;13.48;2.95;;;;;;;13.28;100.00;101187.41;5405361;26;20548;-61
2024/04/11 00:59:49;;;;;;;16.13;3.95;;;;;;;13.27;100.00;101183.81;5400543;26;20007;-61
2024/04/11 01:02:16;;;;;;;13.65;3.55;;;;;;;13.27;100.00;101180.22;5414362;26;20002;-60
2024/04/11 01:04:44;;;;;;;14.40;3.40;;;;;;;13.25;100.00;101183.34;5445911;26;20019;-61
2024/04/11 01:07:12;;;;;;;18.13;4.47;;;;;;;13.24;100.00;101183.69;5414490;26;20075;-61
2024/04/11 01:09:43;;;;;;;17.38;4.50;;;;;;;13.25;100.00;101190.88;5431097;26;20017;-61
2024/04/11 01:12:14;;;;;;;19.00;4.80;;;;;;;13.22;100.00;101197.13;5433200;26;20333;-60
2024/04/11 01:14:43;;;;;;;14.30;3.67;;;;;;;13.16;100.00;101206.88;5446226;26;20745;-60
2024/04/11 01:17:16;;;;;;;18.48;4.10;;;;;;;13.13;100.00;101215.94;5414050;26;20533;-61
2024/04/11 01:19:47;;;;;;;21.77;4.13;;;;;;;13.11;100.00;101212.69;5444904;26;20083;-62
2024/04/11 01:22:15;;;;;;;15.80;3.53;;;;;;;13.10;100.00;101222.19;5413465;26;20007;-61
2024/04/11 01:24:43;;;;;;;15.88;3.60;;;;;;;13.06;100.00;101202.59;5414488;26;20003;-60
2024/04/11 01:27:12;;;;;;;15.27;4.97;;;;;;;13.02;100.00;101196.13;5446243;26;20063;-61
2024/04/11 01:29:40;;;;;;;13.88;2.85;;;;;;;13.02;100.00;101207.25;5444629;26;20049;-61
2024/04/11 01:32:08;;;;;;;16.58;3.58;;;;;;;13.00;100.00;101217.88;5388001;26;20010;-61
2024/04/11 01:34:36;;;;;;;12.48;2.70;;;;;;;13.00;100.00;101212.31;5443772;26;20003;-61
2024/04/11 01:37:05;;;;;;;11.18;2.83;;;;;;;13.00;100.00;101197.66;5446106;26;20450;-60
2024/04/11 01:39:32;;;;;;;11.63;4.97;;;;;;;13.00;100.00;101197.66;5443085;26;20013;-61
2024/04/11 01:42:04;;;;;;;18.10;4.65;;;;;;;13.00;100.00;101192.88;5445768;26;20013;-61
2024/04/11 01:44:31;;;;;;;17.30;2.95;;;;;;;13.00;100.00;101198.44;5445982;26;20009;-61
2024/04/11 01:46:59;;;;;;;16.92;4.00;;;;;;;13.00;100.00;101197.66;5438410;26;20003;-61
2024/04/11 01:49:31;;;;;;;13.10;4.25;;;;;;;12.99;100.00;101205.16;5441709;26;20007;-61
2024/04/11 01:51:59;;;;;;;17.13;3.35;;;;;;;12.99;100.00;101201.56;5445549;26;20018;-60
2024/04/11 01:54:26;;;;;;;12.05;2.88;;;;;;;13.01;100.00;101210.38;5445522;26;20017;-61
2024/04/11 01:56:54;;;;;;;14.43;3.10;;;;;;;13.02;100.00;101220.34;5445395;26;20019;-61
2024/04/11 01:59:21;;;;;;;15.68;3.63;;;;;;;13.03;100.00;101224.72;5444980;26;20003;-61
2024/04/11 02:01:49;;;;;;;28.65;5.28;;;;;;;13.04;100.00;101234.69;5445654;26;20039;-61
2024/04/11 02:04:16;;;;;;;14.02;3.10;;;;;;;13.05;100.00;101227.97;5444823;26;20075;-61
2024/04/11 02:06:44;;;;;;;15.75;3.80;;;;;;;13.05;100.00;101248.22;5384383;26;20007;-61
2024/04/11 02:09:11;;;;;;;19.02;3.45;;;;;;;13.06;100.00;101249.03;5411932;26;20076;-61
2024/04/11 02:11:46;;;;;;;17.50;3.80;;;;;;;13.07;100.00;101265.41;5445234;26;20013;-61
2024/04/11 02:14:14;;;;;;;18.05;3.90;;;;;;;13.07;100.00;101279.31;5413746;26;19999;-61
2024/04/11 02:16:42;;;;;;;17.98;3.53;;;;;;;13.08;100.00;101288.47;5444754;26;20014;-61
2024/04/11 02:19:09;;;;;;;18.92;5.70;;;;;;;13.09;100.00;101296.44;5444660;26;20073;-61
2024/04/11 02:21:42;;;;;;;15.90;4.28;;;;;;;13.10;100.00;101300.03;5343651;26;20048;-61
2024/04/11 02:24:16;;;;;;;20.05;3.85;;;;;;;13.10;100.00;101302.81;5437510;26;20052;-61
2024/04/11 02:26:47;;;;;;;13.70;3.60;;;;;;;13.08;100.00;101303.16;5445531;26;20011;-60
2024/04/11 02:29:17;;;;;;;24.55;5.32;;;;;;;13.07;100.00;101315.44;5443650;26;20006;-61
2024/04/11 02:31:47;;;;;;;20.70;3.97;;;;;;;13.07;100.00;101317.41;5414370;26;20462;-60
2024/04/11 02:34:19;;;;;;;25.67;4.35;;;;;;;13.06;100.00;101318.53;5434829;26;20843;-61
2024/04/11 02:36:47;;;;;;;24.30;5.57;;;;;;;13.04;100.00;101312.50;5443693;26;20003;-61
2024/04/11 02:39:16;;;;;;;17.40;4.38;;;;;;;13.03;100.00;101333.13;5444795;26;20867;-61
2024/04/11 02:41:45;;;;;;;21.45;6.20;;;;;;;13.02;100.00;101326.78;5447443;26;20071;-62
2024/04/11 02:44:14;;;;;;;28.85;5.35;;;;;;;13.01;100.00;101321.53;5448145;26;20003;-61
2024/04/11 02:46:41;;;;;;;21.40;4.70;;;;;;;13.01;100.00;101327.09;5417155;26;20034;-61
2024/04/11 02:49:09;;;;;;;18.13;4.55;;;;;;;12.99;100.00;101323.88;5447432;26;20010;-61
2024/04/11 02:51:37;;;;;;;23.90;4.97;;;;;;;13.00;100.00;101339.41;5416038;26;20021;-60
2024/04/11 02:54:09;;;;;;;62.25;9.45;;;;;;;12.99;100.00;101357.22;5448573;26;20018;-61
2024/04/11 02:56:41;;;;;;;;;;;;;;;12.98;100.00;101344.47;5448651;26;20014;-61
2024/04/11 02:59:11;;;;;;;33.10;6.63;;;;;;;12.97;100.00;101360.38;5448500;26;19931;-60
2024/04/11 03:01:39;;;;;;;21.00;4.63;;;;;;;12.96;100.00;101357.91;5504962;21;20434;-61
2024/04/11 03:04:06;;;;;;;22.40;4.05;;;;;;;12.95;100.00;101361.84;5413566;26;20003;-61
2024/04/11 03:06:35;;;;;;;22.17;4.20;;;;;;;12.96;100.00;101360.69;5389113;26;20345;-61
2024/04/11 03:09:03;;;;;;;28.90;6.97;;;;;;;12.95;100.00;101356.28;5382152;26;20000;-61
2024/04/11 03:11:34;;;;;;;19.70;5.57;;;;;;;12.95;100.00;101356.28;5382045;26;20005;-61
2024/04/11 03:14:02;;;;;;;26.73;5.63;;;;;;;12.93;100.00;101348.28;5377445;26;20014;-61
2024/04/11 03:16:30;;;;;;;24.98;5.15;;;;;;;12.94;100.00;101351.91;5397363;26;20459;-61
2024/04/11 03:18:59;;;;;;;21.77;5.93;;;;;;;12.94;100.00;101343.56;5393394;26;20065;-61
2024/04/11 03:21:27;;;;;;;23.85;4.80;;;;;;;12.95;100.00;101361.84;5389461;26;20035;-61
2024/04/11 03:23:55;;;;;;;23.75;4.70;;;;;;;12.92;100.00;101363.34;5382398;26;20045;-61
2024/04/11 03:26:22;;;;;;;19.77;4.93;;;;;;;12.91;100.00;101369.25;5399823;26;20049;-61
2024/04/11 03:28:50;;;;;;;23.20;5.05;;;;;;;12.92;100.00;101368.13;5396173;26;20345;-61
2024/04/11 03:31:21;;;;;;;21.40;4.28;;;;;;;12.91;100.00;101367.28;5399523;26;20693;-61
2024/04/11 03:33:57;;;;;;;25.90;5.43;;;;;;;12.91;100.00;101372.03;5402845;26;20015;-61
2024/04/11 03:36:26;;;;;;;28.50;5.13;;;;;;;12.92;100.00;101374.47;5401982;26;20018;-61
2024/04/11 03:38:54;;;;;;;22.08;4.55;;;;;;;12.91;100.00;101375.63;5411263;26;20364;-61
2024/04/11 03:41:22;;;;;;;30.58;5.05;;;;;;;12.92;100.00;101387.56;5408724;26;20007;-61
2024/04/11 03:43:56;;;;;;;25.58;5.72;;;;;;;12.92;100.00;101390.34;5379124;26;20020;-61
2024/04/11 03:46:23;;;;;;;19.90;4.60;;;;;;;12.92;100.00;101402.25;5406741;26;20000;-61
2024/04/11 03:48:56;;;;;;;20.92;4.85;;;;;;;12.93;100.00;101411.41;5409564;26;20019;-62
2024/04/11 03:51:49;;;;;;;16.23;5.13;;;;;;;12.92;100.00;101405.03;5390470;26;19999;-61
2024/04/11 03:54:17;;;;;;;;;;;;;;;12.89;100.00;101413.25;5411568;26;20076;-61
2024/04/11 03:56:44;;;;;;;20.05;4.78;;;;;;;12.89;100.00;101427.16;5398663;26;20435;-61
2024/04/11 03:59:12;;;;;;;27.98;6.10;;;;;;;12.88;100.00;101418.00;5393619;26;20074;-61
2024/04/11 04:01:41;;;;;;;39.70;6.28;;;;;;;12.88;100.00;101419.97;5392118;26;20557;-61
2024/04/11 04:04:08;;;;;;;35.40;7.70;;;;;;;12.89;100.00;101438.28;5383622;26;20043;-61
2024/04/11 04:06:36;;;;;;;16.65;3.92;;;;;;;12.88;100.00;101433.88;5427735;26;20076;-61
2024/04/11 04:09:07;;;;;;;19.25;3.97;;;;;;;12.88;100.00;101442.19;5443376;26;20565;-62
2024/04/11 04:11:38;;;;;;;27.48;4.43;;;;;;;12.89;100.00;101454.94;5417505;26;20393;-61
2024/04/11 04:14:08;;;;;;;16.80;4.45;;;;;;;12.87;100.00;101454.50;5414732;26;20032;-61
2024/04/11 04:16:38;;;;;;;24.75;6.28;;;;;;;12.88;100.00;101461.66;5446356;26;20126;-61
2024/04/11 04:19:07;;;;;;;24.13;3.60;;;;;;;12.87;100.00;101462.81;5440643;26;20012;-61
2024/04/11 04:21:35;;;;;;;21.02;5.32;;;;;;;12.86;100.00;101469.53;5430670;26;20018;-61
2024/04/11 04:24:05;;;;;;;24.15;5.93;;;;;;;12.88;100.00;101475.53;5389064;26;20008;-61
2024/04/11 04:26:34;;;;;;;23.02;6.18;;;;;;;12.88;100.00;101475.53;5420334;26;20430;-62
2024/04/11 04:29:03;;;;;;;15.98;3.65;;;;;;;12.89;100.00;101479.97;5438903;26;20014;-61
2024/04/11 04:31:33;;;;;;;13.80;3.75;;;;;;;12.88;100.00;101483.88;5411962;26;20021;-61
2024/04/11 04:34:08;;;;;;;21.20;4.75;;;;;;;12.88;100.00;101486.66;5417550;26;20448;-62
2024/04/11 04:36:42;;;;;;;14.93;3.83;;;;;;;12.88;100.00;101489.44;5423340;26;20087;-61
2024/04/11 04:39:13;;;;;;;20.80;5.13;;;;;;;12.88;100.00;101497.78;5443080;26;20003;-61
2024/04/11 04:41:44;;;;;;;22.42;4.82;;;;;;;12.87;100.00;101498.94;5411058;26;20018;-62
2024/04/11 04:44:12;;;;;;;18.92;5.57;;;;;;;12.88;100.00;101495.00;5434574;26;20016;-61
2024/04/11 04:46:41;;;;;;;21.23;4.00;;;;;;;12.87;100.00;101490.63;5441097;26;20002;-61
2024/04/11 04:49:09;;;;;;;18.92;3.83;;;;;;;12.84;100.00;101498.47;5435233;26;20004;-61
2024/04/11 04:51:39;;;;;;;19.73;3.95;;;;;;;12.83;100.00;101498.81;5411012;26;20049;-61
2024/04/11 04:54:10;;;;;;;18.90;4.10;;;;;;;12.80;100.00;101500.31;5428890;26;20025;-61
2024/04/11 04:56:43;;;;;;;18.48;3.72;;;;;;;12.82;100.00;101519.41;5404771;26;20033;-61
2024/04/11 04:59:12;;;;;;;20.08;5.35;;;;;;;12.82;100.00;101520.22;5445935;26;20010;-61
2024/04/11 05:01:40;;;;;;;25.05;3.97;;;;;;;12.83;100.00;101526.59;5442411;26;20014;-61
2024/04/11 05:04:13;;;;;;;16.05;4.13;;;;;;;12.81;100.00;101531.69;5441791;26;20003;-61
2024/04/11 05:06:43;;;;;;;20.75;5.53;;;;;;;12.82;100.00;101544.41;5444595;26;20026;-61
2024/04/11 05:09:11;;;;;;;30.15;6.95;;;;;;;12.80;100.00;101542.00;5432942;26;20021;-61
2024/04/11 05:11:39;;;;;;;18.80;3.70;;;;;;;12.81;100.00;101540.03;5379683;26;20003;-61
2024/04/11 05:14:07;;;;;;;19.20;4.88;;;;;;;12.81;100.00;101542.81;5430428;26;20015;-61
2024/04/11 05:16:36;;;;;;;21.02;5.35;;;;;;;12.79;100.00;101531.19;5410102;26;20018;-61
2024/04/11 05:19:04;;;;;;;21.33;4.53;;;;;;;12.78;100.00;101527.63;5413052;26;20570;-61
2024/04/11 05:21:32;;;;;;;25.08;5.13;;;;;;;12.78;100.00;101549.88;5428746;26;20425;-61
2024/04/11 05:24:01;;;;;;;22.33;4.05;;;;;;;12.78;100.00;101552.66;5433465;26;20002;-61
2024/04/11 05:26:30;;;;;;;20.48;4.28;;;;;;;12.77;100.00;101550.19;5392060;26;20021;-61
2024/04/11 05:28:59;;;;;;;18.40;4.30;;;;;;;12.76;100.00;101554.94;5417729;26;20013;-61
2024/04/11 05:31:26;;;;;;;21.33;5.22;;;;;;;12.75;100.00;101553.31;5446181;26;20019;-61
2024/04/11 05:34:06;;;;;;;32.95;4.75;;;;;;;12.75;100.00;101549.72;5418876;26;20013;-61
2024/04/11 05:36:39;;;;;;;22.55;4.70;;;;;;;12.74;100.00;101551.69;5445560;26;20015;-63
2024/04/11 05:39:09;;;;;;;27.00;4.70;;;;;;;12.73;100.00;101555.59;5415323;26;20014;-61
2024/04/11 05:41:37;;;;;;;30.42;5.95;;;;;;;12.74;100.00;101559.19;5416058;26;20004;-61
2024/04/11 05:44:06;;;;;;;23.00;5.72;;;;;;;12.75;100.00;101563.63;5379423;26;20469;-61
2024/04/11 05:46:35;;;;;;;17.02;4.25;;;;;;;12.75;100.00;101571.94;5379448;26;20527;-61
2024/04/11 05:49:06;;;;;;;17.63;4.05;;;;;;;12.75;100.00;101569.19;5378894;26;20007;-61
2024/04/11 05:51:35;;;;;;;26.70;6.13;;;;;;;12.76;100.00;101579.94;5410129;26;20540;-61
2024/04/11 05:54:03;;;;;;;27.77;4.30;;;;;;;12.77;100.00;101578.78;5443567;26;20083;-61
2024/04/11 05:56:34;;;;;;;22.23;4.45;;;;;;;12.77;100.00;101570.47;5445972;26;20491;-61
2024/04/11 05:59:02;;;;;;;20.50;4.30;;;;;;;12.79;100.00;101570.94;5446168;26;20714;-61
2024/04/11 06:01:34;;;;;;;20.63;4.68;;;;;;;12.80;100.00;101572.56;5445807;26;19999;-61
2024/04/11 06:04:05;;;;;;;19.85;5.03;;;;;;;12.82;100.00;101597.22;5445920;26;20015;-62
2024/04/11 06:06:33;;;;;;;33.88;6.32;;;;;;;12.80;100.00;101580.91;5434248;26;20338;-61
2024/04/11 06:09:02;;;;;;;25.63;4.82;;;;;;;12.82;100.00;101586.91;5413577;26;20110;-62
2024/04/11 06:11:30;;;;;;;32.08;5.47;;;;;;;12.85;100.00;101588.22;5445524;26;20003;-61
2024/04/11 06:13:57;;;;;;;24.75;6.18;;;;;;;12.84;100.00;101595.72;5414586;26;20003;-61
2024/04/11 06:16:25;;;;;;;24.52;4.43;;;;;;;12.88;100.00;101595.06;5444763;26;20028;-61
2024/04/11 06:18:54;;;;;;;28.83;5.13;;;;;;;12.90;100.00;101587.19;5445577;26;20049;-61
2024/04/11 06:21:32;;;;;;;28.23;5.40;;;;;;;12.93;100.00;101592.06;5445828;26;20031;-62
2024/04/11 06:24:01;;;;;;;22.83;4.88;;;;;;;12.93;100.00;101604.00;5445338;26;20025;-61
2024/04/11 06:26:33;;;;;;;22.17;4.78;;;;;;;12.97;100.00;101604.13;5445564;26;20015;-61
2024/04/11 06:29:01;;;;;;;32.75;5.35;;;;;;;12.98;100.00;101605.75;5402644;26;20004;-61
2024/04/11 06:31:30;;;;;;;32.70;6.90;;;;;;;13.02;100.00;101603.94;5409729;26;20136;-61
2024/04/11 06:33:58;;;;;;;18.95;4.93;;;;;;;13.01;100.00;101605.06;5437019;26;20003;-61
2024/04/11 06:36:26;;;;;;;25.20;5.88;;;;;;;13.01;100.00;101593.94;5431822;26;20004;-61
2024/04/11 06:38:54;;;;;;;27.88;5.82;;;;;;;13.01;100.00;101596.72;5429845;26;20010;-61
2024/04/11 06:41:22;;;;;;;22.63;3.83;;;;;;;13.04;100.00;101587.72;5402461;26;20032;-61
2024/04/11 06:43:51;;;;;;;23.33;4.60;;;;;;;13.07;100.00;101599.00;5417055;26;20008;-62
2024/04/11 06:46:21;;;;;;;25.83;5.18;;;;;;;13.13;100.00;101607.94;5411579;26;20012;-61
2024/04/11 06:48:49;;;;;;;27.05;5.70;;;;;;;13.16;100.00;101608.06;5434837;26;19999;-61
2024/04/11 06:51:19;;;;;;;23.67;4.80;;;;;;;13.20;100.00;101627.66;5444217;26;20076;-61
2024/04/11 06:53:47;;;;;;;14.95;6.50;;;;;;;13.21;100.00;101626.53;5383559;26;20457;-61
2024/04/11 06:56:17;;;;;;;16.85;5.90;;;;;;;13.26;100.00;101623.53;5380575;26;20044;-61
2024/04/11 06:58:49;;;;;;;20.77;5.30;;;;;;;13.29;100.00;101633.97;5377207;26;20022;-61
2024/04/11 07:01:17;;;;;;;16.35;3.80;;;;;;;13.31;100.00;101631.66;5418790;26;20022;-62
2024/04/11 07:03:49;;;;;;;24.50;4.50;;;;;;;13.31;100.00;101628.88;5410115;26;20007;-61
2024/04/11 07:06:22;;;;;;;18.25;3.65;;;;;;;13.32;100.00;101638.81;5437923;26;20330;-62
2024/04/11 07:08:52;;;;;;;15.25;3.45;;;;;;;13.32;100.00;101633.25;5377529;26;20076;-61
2024/04/11 07:11:20;;;;;;;21.25;5.43;;;;;;;13.34;100.00;101645.66;5446250;26;20039;-61
2024/04/11 07:13:55;;;;;;;13.50;3.75;;;;;;;13.37;99.87;101627.47;5445110;26;20013;-61
2024/04/11 07:16:32;;;;;;;12.90;3.45;;;;;;;13.40;99.96;101624.03;5434220;26;20476;-61
2024/04/11 07:19:02;;;;;;;17.90;3.83;;;;;;;13.44;99.64;101624.97;5423802;26;20522;-61
2024/04/11 07:21:34;;;;;;;18.70;4.03;;;;;;;13.49;99.57;101630.31;5392164;26;20035;-61
2024/04/11 07:24:03;;;;;;;16.75;4.03;;;;;;;13.53;99.48;101636.81;5434556;26;19999;-63
2024/04/11 07:26:33;;;;;;;16.92;3.75;;;;;;;13.56;99.57;101636.13;5404538;26;20010;-61
2024/04/11 07:29:06;;;;;;;14.40;3.90;;;;;;;13.59;99.00;101635.44;5398221;26;20004;-61
2024/04/11 07:31:36;;;;;;;16.98;3.25;;;;;;;13.63;99.27;101655.06;5433074;26;20083;-62
2024/04/11 07:34:04;;;;;;;17.13;4.80;;;;;;;13.64;99.07;101660.25;5440195;26;20466;-61
2024/04/11 07:36:39;;;;;;;21.38;4.22;;;;;;;13.63;99.10;101658.66;5400131;26;20019;-62
2024/04/11 07:39:08;;;;;;;14.20;3.15;;;;;;;13.60;98.73;101667.69;5397366;26;20006;-62
2024/04/11 07:41:45;;;;;;;21.08;3.85;;;;;;;13.62;98.31;101668.16;5424252;26;20038;-62
2024/04/11 07:44:22;;;;;;;27.27;5.35;;;;;;;13.65;97.82;101678.59;5424135;26;20004;-64
2024/04/11 07:46:53;;;;;;;25.40;5.63;;;;;;;13.70;97.94;101695.06;5438352;26;20011;-61
2024/04/11 07:49:49;;;;;;;14.68;4.13;;;;;;;13.72;97.55;101692.75;5420025;26;20025;-61
2024/04/11 07:52:16;;;;;;;17.30;3.40;;;;;;;13.74;97.32;101679.31;5428829;26;20003;-62
2024/04/11 07:54:44;;;;;;;17.77;3.88;;;;;;;13.82;97.38;101686.75;5436240;26;20050;-62
2024/04/11 07:57:16;;;;;;;14.65;3.33;;;;;;;13.90;97.60;101687.81;5451892;26;20075;-62
2024/04/11 07:59:46;;;;;;;16.67;3.20;;;;;;;13.94;97.30;101684.00;5446699;26;20079;-61
2024/04/11 08:02:14;;;;;;;14.18;3.38;;;;;;;13.98;97.15;101679.34;5408323;26;20003;-61
2024/04/11 08:04:42;;;;;;;14.35;3.50;;;;;;;13.99;96.68;101669.88;5437313;26;20104;-62
2024/04/11 08:07:10;;;;;;;19.73;4.13;;;;;;;14.01;96.45;101677.84;5444282;26;20086;-62
2024/04/11 08:09:55;;;;;;;18.10;3.53;;;;;;;14.04;96.14;101675.19;5460295;26;20016;-62
2024/04/11 08:12:23;;;;;;;15.77;3.45;;;;;;;14.17;96.44;101662.09;5434919;26;20819;-61
2024/04/11 08:14:51;;;;;;;14.80;3.92;;;;;;;14.35;96.14;101673.88;5401977;26;20020;-61
2024/04/11 08:17:20;;;;;;;15.27;5.10;;;;;;;14.51;95.66;101680.34;5429465;26;20397;-62
2024/04/11 08:19:48;;;;;;;19.25;3.47;;;;;;;14.57;95.14;101676.16;5435438;26;20504;-62
2024/04/11 08:22:32;;;;;;;16.73;4.97;;;;;;;14.62;95.43;101681.50;5435278;26;20705;-61
2024/04/11 08:24:59;;;;;;;22.42;3.90;;;;;;;14.67;95.08;101681.25;5434425;26;20789;-61
2024/04/11 08:27:27;;;;;;;22.23;3.92;;;;;;;14.72;95.13;101692.19;5432340;26;21048;-61
2024/04/11 08:29:54;;;;;;;19.05;4.88;;;;;;;14.81;95.18;101706.81;5452320;26;20786;-61
2024/04/11 08:32:22;;;;;;;24.38;5.13;;;;;;;14.92;95.10;101702.38;5475656;26;20003;-62
2024/04/11 08:34:51;;;;;;;20.45;4.30;;;;;;;14.99;94.50;101697.03;5458504;26;19998;-62
2024/04/11 08:37:19;;;;;;;13.70;3.67;;;;;;;15.12;94.41;101693.03;5434433;26;20074;-63
2024/04/11 08:39:47;;;;;;;12.68;3.05;;;;;;;15.34;94.17;101671.34;5447591;26;20018;-61
2024/04/11 08:42:15;;;;;;;14.50;3.88;;;;;;;15.57;94.36;101673.25;5445267;26;20010;-64
2024/04/11 08:44:45;;;;;;;16.02;4.07;;;;;;;15.94;95.30;101670.25;5447402;26;20007;-61
2024/04/11 08:47:14;;;;;;;18.38;3.58;;;;;;;16.49;96.01;101672.03;5444806;26;20003;-62
2024/04/11 08:49:42;;;;;;;10.88;3.40;;;;;;;17.25;95.08;101668.59;5446893;26;20025;-62
2024/04/11 08:52:15;;;;;;;27.40;4.95;;;;;;;18.18;93.82;101670.84;5481039;26;20095;-61
2024/04/11 08:54:44;;;;;;;19.38;3.30;;;;;;;19.13;91.30;101676.31;5425036;26;20004;-62
2024/04/11 08:57:12;;;;;;;13.98;3.50;;;;;;;19.77;88.19;101678.72;5436490;26;20089;-62
2024/04/11 08:59:45;;;;;;;24.58;4.28;;;;;;;19.67;84.58;101685.03;5452330;26;20075;-62
2024/04/11 09:02:13;;;;;;;22.75;4.43;;;;;;;19.15;82.95;101677.53;5452287;26;20007;-62
2024/04/11 09:04:41;;;;;;;21.73;4.65;;;;;;;18.56;82.88;101689.50;5393997;26;20021;-62
2024/04/11 09:07:20;;;;;;;16.20;3.58;;;;;;;18.33;83.93;101699.09;5451342;26;20003;-62
2024/04/11 09:09:52;;;;;;;17.00;4.13;;;;;;;18.22;84.25;101690.50;5414524;26;20031;-62
2024/04/11 09:12:23;;;;;;;11.15;3.35;;;;;;;18.60;82.61;101695.97;5459119;26;20021;-63
2024/04/11 09:14:51;;;;;;;13.93;3.42;;;;;;;18.85;81.01;101696.34;5430110;26;20003;-62
2024/04/11 09:17:18;;;;;;;12.82;3.70;;;;;;;18.95;80.17;101703.31;5426700;26;20009;-63
2024/04/11 09:19:49;;;;;;;12.20;3.45;;;;;;;18.81;79.53;101693.50;5434686;26;20046;-62
2024/04/11 09:22:21;;;;;;;17.60;3.83;;;;;;;19.20;78.27;101696.03;5447999;26;20091;-62
2024/04/11 09:24:50;;;;;;;14.55;3.70;;;;;;;19.95;76.42;101715.44;5420854;26;20011;-62
2024/04/11 09:27:20;;;;;;;10.80;3.25;;;;;;;20.20;74.29;101721.31;5438188;26;19999;-62
2024/04/11 09:29:48;;;;;;;16.10;3.75;;;;;;;20.16;74.21;101707.22;5467981;26;20082;-62
2024/04/11 09:32:21;;;;;;;12.30;3.10;;;;;;;20.22;73.50;101710.50;5470062;26;20021;-62
2024/04/11 09:34:52;;;;;;;11.02;3.08;;;;;;;20.49;72.44;101707.13;5425301;26;20018;-62
2024/04/11 09:37:23;;;;;;;15.80;3.20;;;;;;;20.87;70.85;101710.63;5428159;26;20014;-62
2024/04/11 09:39:56;;;;;;;11.90;3.28;;;;;;;21.48;69.91;101718.25;5443818;26;20031;-62
2024/04/11 09:42:30;;;;;;;16.63;3.75;;;;;;;21.90;67.29;101726.06;5452517;26;20452;-62
2024/04/11 09:45:00;;;;;;;17.42;4.45;;;;;;;21.11;66.66;101726.91;5436934;26;20003;-62
2024/04/11 09:47:28;;;;;;;12.70;3.72;;;;;;;20.54;67.75;101728.50;5462022;26;20017;-63
2024/04/11 09:50:03;;;;;;;18.95;3.15;;;;;;;20.79;67.85;101721.03;5477219;26;20897;-62
2024/04/11 09:52:37;;;;;;;20.73;5.40;;;;;;;21.04;66.01;101724.03;5422448;26;20012;-62
2024/04/11 09:55:09;;;;;;;12.27;2.90;;;;;;;21.40;65.38;101723.03;5435630;26;20015;-63
2024/04/11 09:57:44;;;;;;;8.85;3.05;;;;;;;21.93;63.66;101739.38;5423146;26;20016;-62
2024/04/11 10:00:48;;;;;;;15.75;3.35;;;;;;;22.45;62.09;101745.09;5451546;26;19999;-62
2024/04/11 10:03:07;;;;;;;11.77;3.72;;;;;;;22.78;61.30;101751.59;5432149;26;20003;-62
2024/04/11 10:05:40;;;;;;;11.50;2.63;;;;;;;22.92;60.51;101740.28;5410957;26;20035;-62
2024/04/11 10:08:16;;;;;;;10.82;3.42;;;;;;;22.84;59.80;101738.69;5434872;26;20024;-62
2024/04/11 10:10:52;;;;;;;15.07;2.85;;;;;;;23.04;59.52;101742.69;5430218;26;20456;-62
2024/04/11 10:13:23;;;;;;;12.00;3.10;;;;;;;22.87;58.19;101737.88;5435832;26;20552;-63
2024/04/11 10:16:13;;;;;;;10.82;2.55;;;;;;;22.45;59.35;101745.09;5434451;26;20039;-62
2024/04/11 10:18:51;;;;;;;17.52;3.78;;;;;;;22.42;57.82;101751.53;5426096;26;20002;-64
2024/04/11 10:21:29;;;;;;;14.13;4.22;;;;;;;22.21;58.97;101757.16;5450293;26;20010;-64
2024/04/11 10:24:27;;;;;;;11.13;3.20;;;;;;;22.36;58.18;101767.28;5442255;26;19999;-62
2024/04/11 10:26:57;;;;;;;18.77;3.03;;;;;;;22.39;57.22;101758.03;5396891;26;20083;-62
2024/04/11 10:29:26;;;;;;;12.15;2.95;;;;;;;22.12;56.67;101753.94;5395599;26;20010;-61
2024/04/11 10:31:58;;;;;;;19.88;3.47;;;;;;;21.79;57.40;101757.81;5430903;26;20080;-62
2024/04/11 10:34:34;;;;;;;12.32;3.00;;;;;;;21.85;57.93;101758.25;5434420;26;20008;-62
2024/04/11 10:37:07;;;;;;;12.27;3.22;;;;;;;21.69;57.53;101760.59;5426489;26;20460;-62
2024/04/11 10:39:35;;;;;;;15.07;3.25;;;;;;;21.30;58.46;101753.97;5438307;26;20012;-62
2024/04/11 10:42:10;;;;;;;11.18;2.80;;;;;;;21.61;58.29;101750.50;5377232;26;20007;-62
2024/04/11 10:44:38;;;;;;;12.10;2.88;;;;;;;21.97;57.17;101746.66;5415680;26;20006;-62
2024/04/11 10:47:13;;;;;;;9.25;3.20;;;;;;;22.04;56.34;101735.38;5450221;26;20014;-62
2024/04/11 10:49:41;;;;;;;14.85;3.38;;;;;;;21.99;56.86;101747.06;5448805;26;20582;-62
2024/04/11 10:52:10;;;;;;;17.63;2.70;;;;;;;21.89;57.22;101747.84;5441832;26;20049;-62
2024/04/11 10:54:43;;;;;;;14.55;3.35;;;;;;;21.22;58.11;101744.69;5463128;26;20003;-62
2024/04/11 10:57:12;;;;;;;15.48;2.72;;;;;;;20.52;59.86;101733.69;5446763;26;20018;-62
2024/04/11 10:59:50;;;;;;;10.02;2.55;;;;;;;20.02;61.14;101724.75;5412993;26;20471;-62
2024/04/11 11:02:23;;;;;;;11.73;3.58;;;;;;;19.74;62.32;101715.22;5429795;26;20015;-62
2024/04/11 11:04:54;;;;;;;15.30;3.13;;;;;;;19.50;62.64;101715.72;5447981;26;20014;-62
2024/04/11 11:07:31;;;;;;;11.02;2.38;;;;;;;19.27;63.40;101710.19;5416166;26;20011;-60
2024/04/11 11:10:04;;;;;;;18.73;4.68;;;;;;;19.05;63.73;101711.06;5464828;26;20010;-61
2024/04/11 11:12:35;;;;;;;13.00;3.53;;;;;;;18.81;64.77;101710.34;5445488;26;20006;-61
2024/04/11 11:15:04;;;;;;;9.52;2.55;;;;;;;18.75;65.42;101717.44;5457040;26;20010;-61
2024/04/11 11:17:31;;;;;;;11.15;3.05;;;;;;;18.70;65.46;101729.00;5439994;26;20031;-60
2024/04/11 11:19:59;;;;;;;18.58;3.17;;;;;;;18.63;65.68;101717.69;5424837;26;20333;-61
2024/04/11 11:22:33;;;;;;;14.38;2.88;;;;;;;18.56;65.61;101708.34;5446859;26;20091;-60
2024/04/11 11:25:08;;;;;;;10.30;3.45;;;;;;;18.54;66.03;101708.69;5389270;26;21080;-60